sensor_id;sensor_type;location;lat;lon;timestamp;pressure;altitude;pressure_sealevel;temperature;humidity
29549;BME280;16487;53.094;8.800;2023-02-19T00:01:47;103488.13;;;5.92;100.00
29549;BME280;16487;53.094;8.800;2023-02-19T00:04:16;103505.28;;;5.86;100.00
29549;BME280;16487;53.094;8.800;2023-02-19T00:06:45;103502.97;;;5.88;100.00
29549;BME280;16487;53.094;8.800;2023-02-19T00:09:14;103518.88;;;5.91;100.00
29549;BME280;16487;53.094;8.800;2023-02-19T00:11:42;103532.59;;;5.87;100.00
29549;BME280;16487;53.094;8.800;2023-02-19T00:14:10;103537.69;;;5.85;100.00
29549;BME280;16487;53.094;8.800;2023-02-19T00:16:40;103534.78;;;5.81;100.00
29549;BME280;16487;53.094;8.800;2023-02-19T00:19:11;103547.13;;;5.84;100.00
29549;BME280;16487;53.094;8.800;2023-02-19T00:21:39;103559.28;;;5.92;100.00
29549;BME280;16487;53.094;8.800;2023-02-19T00:24:07;103568.34;;;5.80;100.00
29549;BME280;16487;53.094;8.800;2023-02-19T00:26:37;103575.47;;;5.81;100.00
29549;BME280;16487;53.094;8.800;2023-02-19T00:29:05;103593.56;;;5.78;100.00
29549;BME280;16487;53.094;8.800;2023-02-19T00:31:33;103602.19;;;5.77;100.00
29549;BME280;16487;53.094;8.800;2023-02-19T00:34:03;103596.66;;;5.77;100.00
29549;BME280;16487;53.094;8.800;2023-02-19T00:36:33;103601.41;;;5.76;100.00
29549;BME280;16487;53.094;8.800;2023-02-19T00:39:00;103600.47;;;5.72;100.00
29549;BME280;16487;53.094;8.800;2023-02-19T00:41:28;103613.97;;;5.74;100.00
29549;BME280;16487;53.094;8.800;2023-02-19T00:43:57;103618.41;;;5.66;100.00
29549;BME280;16487;53.094;8.800;2023-02-19T00:46:27;103641.63;;;5.74;100.00
29549;BME280;16487;53.094;8.800;2023-02-19T00:48:56;103649.47;;;5.72;100.00
29549;BME280;16487;53.094;8.800;2023-02-19T00:51:25;103656.50;;;5.69;100.00
29549;BME280;16487;53.094;8.800;2023-02-19T00:53:55;103658.44;;;5.69;100.00
29549;BME280;16487;53.094;8.800;2023-02-19T00:56:22;103661.69;;;5.71;100.00
29549;BME280;16487;53.094;8.800;2023-02-19T00:58:49;103666.75;;;5.69;100.00
29549;BME280;16487;53.094;8.800;2023-02-19T01:01:17;103662.34;;;5.68;100.00
29549;BME280;16487;53.094;8.800;2023-02-19T01:03:45;103655.63;;;5.57;100.00
29549;BME280;16487;53.094;8.800;2023-02-19T01:06:15;103666.69;;;5.57;100.00
29549;BME280;16487;53.094;8.800;2023-02-19T01:08:43;103658.78;;;5.47;100.00
29549;BME280;16487;53.094;8.800;2023-02-19T01:11:12;103659.25;;;5.49;100.00
29549;BME280;16487;53.094;8.800;2023-02-19T01:13:40;103656.25;;;5.42;100.00
29549;BME280;16487;53.094;8.800;2023-02-19T01:16:10;103659.84;;;5.34;100.00
29549;BME280;16487;53.094;8.800;2023-02-19T01:18:38;103670.56;;;5.35;100.00
29549;BME280;16487;53.094;8.800;2023-02-19T01:21:07;103674.78;;;5.41;100.00
29549;BME280;16487;53.094;8.800;2023-02-19T01:23:36;103679.56;;;5.32;100.00
29549;BME280;16487;53.094;8.800;2023-02-19T01:26:04;103679.91;;;5.31;100.00
29549;BME280;16487;53.094;8.800;2023-02-19T01:28:33;103687.09;;;5.23;100.00
29549;BME280;16487;53.094;8.800;2023-02-19T01:31:01;103691.97;;;5.26;100.00
29549;BME280;16487;53.094;8.800;2023-02-19T01:33:29;103684.94;;;5.29;100.00
29549;BME280;16487;53.094;8.800;2023-02-19T01:35:56;103700.56;;;5.25;100.00
29549;BME280;16487;53.094;8.800;2023-02-19T01:38:24;103713.56;;;5.33;100.00
29549;BME280;16487;53.094;8.800;2023-02-19T01:40:55;103695.81;;;5.34;100.00
29549;BME280;16487;53.094;8.800;2023-02-19T01:43:23;103705.59;;;5.31;100.00
29549;BME280;16487;53.094;8.800;2023-02-19T01:45:52;103706.66;;;5.39;100.00
29549;BME280;16487;53.094;8.800;2023-02-19T01:48:22;103716.81;;;5.35;100.00
29549;BME280;16487;53.094;8.800;2023-02-19T01:50:54;103727.19;;;5.38;100.00
29549;BME280;16487;53.094;8.800;2023-02-19T01:53:24;103735.19;;;5.31;100.00
29549;BME280;16487;53.094;8.800;2023-02-19T01:55:55;103741.22;;;5.33;100.00
29549;BME280;16487;53.094;8.800;2023-02-19T01:58:27;103752.94;;;5.30;100.00
29549;BME280;16487;53.094;8.800;2023-02-19T02:00:57;103754.22;;;5.32;100.00
29549;BME280;16487;53.094;8.800;2023-02-19T02:03:24;103759.91;;;5.36;100.00
29549;BME280;16487;53.094;8.800;2023-02-19T02:05:55;103766.59;;;5.35;100.00
29549;BME280;16487;53.094;8.800;2023-02-19T02:08:24;103769.84;;;5.28;100.00
29549;BME280;16487;53.094;8.800;2023-02-19T02:10:52;103772.63;;;5.28;100.00
29549;BME280;16487;53.094;8.800;2023-02-19T02:13:21;103778.28;;;5.32;100.00
29549;BME280;16487;53.094;8.800;2023-02-19T02:15:53;103782.41;;;5.26;100.00
29549;BME280;16487;53.094;8.800;2023-02-19T02:18:39;103786.97;;;5.22;100.00
29549;BME280;16487;53.094;8.800;2023-02-19T02:21:28;103787.13;;;5.25;100.00
29549;BME280;16487;53.094;8.800;2023-02-19T02:24:10;103770.56;;;5.17;100.00
29549;BME280;16487;53.094;8.800;2023-02-19T02:26:50;103770.91;;;5.15;100.00
29549;BME280;16487;53.094;8.800;2023-02-19T02:32:26;103782.44;;;5.17;100.00
29549;BME280;16487;53.094;8.800;2023-02-19T02:35:02;103778.22;;;5.11;100.00
29549;BME280;16487;53.094;8.800;2023-02-19T02:37:34;103778.09;;;5.08;100.00
29549;BME280;16487;53.094;8.800;2023-02-19T02:40:06;103783.13;;;5.06;100.00
29549;BME280;16487;53.094;8.800;2023-02-19T02:42:37;103787.69;;;5.10;100.00
29549;BME280;16487;53.094;8.800;2023-02-19T02:45:28;103776.03;;;4.96;100.00
29549;BME280;16487;53.094;8.800;2023-02-19T02:47:57;103784.94;;;5.02;100.00
29549;BME280;16487;53.094;8.800;2023-02-19T02:50:29;103780.91;;;4.91;100.00
29549;BME280;16487;53.094;8.800;2023-02-19T02:53:02;103773.66;;;4.78;100.00
29549;BME280;16487;53.094;8.800;2023-02-19T02:55:35;103778.50;;;4.81;100.00
29549;BME280;16487;53.094;8.800;2023-02-19T02:58:04;103785.66;;;4.82;100.00
29549;BME280;16487;53.094;8.800;2023-02-19T03:00:32;103794.13;;;4.77;100.00
29549;BME280;16487;53.094;8.800;2023-02-19T03:03:03;103797.22;;;4.75;100.00
29549;BME280;16487;53.094;8.800;2023-02-19T03:05:31;103796.41;;;4.75;100.00
29549;BME280;16487;53.094;8.800;2023-02-19T03:08:04;103812.97;;;4.75;100.00
29549;BME280;16487;53.094;8.800;2023-02-19T03:10:37;103822.09;;;4.75;100.00
29549;BME280;16487;53.094;8.800;2023-02-19T03:13:08;103823.06;;;4.71;100.00
29549;BME280;16487;53.094;8.800;2023-02-19T03:15:42;103836.41;;;4.68;100.00
29549;BME280;16487;53.094;8.800;2023-02-19T03:18:13;103842.59;;;4.65;100.00
29549;BME280;16487;53.094;8.800;2023-02-19T03:20:44;103843.88;;;4.59;100.00
29549;BME280;16487;53.094;8.800;2023-02-19T03:23:15;103840.00;;;4.60;100.00
29549;BME280;16487;53.094;8.800;2023-02-19T03:25:46;103852.66;;;4.61;100.00
29549;BME280;16487;53.094;8.800;2023-02-19T03:28:19;103851.06;;;4.60;100.00
29549;BME280;16487;53.094;8.800;2023-02-19T03:30:50;103856.72;;;4.55;100.00
29549;BME280;16487;53.094;8.800;2023-02-19T03:33:22;103850.72;;;4.53;100.00
29549;BME280;16487;53.094;8.800;2023-02-19T03:35:56;103866.63;;;4.65;100.00
29549;BME280;16487;53.094;8.800;2023-02-19T03:38:31;103865.66;;;4.52;100.00
29549;BME280;16487;53.094;8.800;2023-02-19T03:41:06;103867.13;;;4.50;100.00
29549;BME280;16487;53.094;8.800;2023-02-19T03:43:39;103884.16;;;4.52;100.00
29549;BME280;16487;53.094;8.800;2023-02-19T03:46:10;103892.78;;;4.59;100.00
29549;BME280;16487;53.094;8.800;2023-02-19T03:48:47;103892.78;;;4.50;100.00
29549;BME280;16487;53.094;8.800;2023-02-19T03:51:26;103892.47;;;4.52;100.00
29549;BME280;16487;53.094;8.800;2023-02-19T03:54:04;103893.94;;;4.49;100.00
29549;BME280;16487;53.094;8.800;2023-02-19T03:56:38;103897.81;;;4.48;100.00
29549;BME280;16487;53.094;8.800;2023-02-19T03:59:13;103915.03;;;4.45;100.00
29549;BME280;16487;53.094;8.800;2023-02-19T04:01:46;103922.22;;;4.46;100.00
29549;BME280;16487;53.094;8.800;2023-02-19T04:04:18;103929.34;;;4.47;100.00
29549;BME280;16487;53.094;8.800;2023-02-19T04:06:52;103946.56;;;4.44;100.00
29549;BME280;16487;53.094;8.800;2023-02-19T04:09:21;103954.19;;;4.47;100.00
29549;BME280;16487;53.094;8.800;2023-02-19T04:11:58;103966.56;;;4.50;100.00
29549;BME280;16487;53.094;8.800;2023-02-19T04:14:29;103965.25;;;4.39;100.00
29549;BME280;16487;53.094;8.800;2023-02-19T04:17:00;103980.22;;;4.46;100.00
29549;BME280;16487;53.094;8.800;2023-02-19T04:19:32;103974.84;;;4.41;100.00
29549;BME280;16487;53.094;8.800;2023-02-19T04:22:03;103989.44;;;4.42;100.00
29549;BME280;16487;53.094;8.800;2023-02-19T04:24:35;103995.97;;;4.46;100.00
29549;BME280;16487;53.094;8.800;2023-02-19T04:27:04;104020.34;;;4.52;100.00
29549;BME280;16487;53.094;8.800;2023-02-19T04:29:32;104023.75;;;4.49;100.00
29549;BME280;16487;53.094;8.800;2023-02-19T04:31:59;104029.09;;;4.46;100.00
29549;BME280;16487;53.094;8.800;2023-02-19T04:34:27;104029.91;;;4.46;100.00
29549;BME280;16487;53.094;8.800;2023-02-19T04:36:56;104040.00;;;4.51;100.00
29549;BME280;16487;53.094;8.800;2023-02-19T04:39:23;104052.81;;;4.55;100.00
29549;BME280;16487;53.094;8.800;2023-02-19T04:41:50;104049.88;;;4.52;100.00
29549;BME280;16487;53.094;8.800;2023-02-19T04:44:18;104070.69;;;4.49;100.00
29549;BME280;16487;53.094;8.800;2023-02-19T04:46:45;104066.00;;;4.50;100.00
29549;BME280;16487;53.094;8.800;2023-02-19T04:49:12;104074.75;;;4.52;100.00
29549;BME280;16487;53.094;8.800;2023-02-19T04:51:40;104081.25;;;4.47;100.00
29549;BME280;16487;53.094;8.800;2023-02-19T04:54:09;104087.91;;;4.46;100.00
29549;BME280;16487;53.094;8.800;2023-02-19T04:56:36;104097.16;;;4.50;100.00
29549;BME280;16487;53.094;8.800;2023-02-19T04:59:03;104103.84;;;4.49;100.00
29549;BME280;16487;53.094;8.800;2023-02-19T05:01:30;104105.97;;;4.52;100.00
29549;BME280;16487;53.094;8.800;2023-02-19T05:03:58;104105.09;;;4.43;100.00
29549;BME280;16487;53.094;8.800;2023-02-19T05:06:25;104105.28;;;4.47;100.00
29549;BME280;16487;53.094;8.800;2023-02-19T05:08:52;104122.69;;;4.47;100.00
29549;BME280;16487;53.094;8.800;2023-02-19T05:11:21;104122.19;;;4.45;100.00
29549;BME280;16487;53.094;8.800;2023-02-19T05:13:48;104123.31;;;4.44;100.00
29549;BME280;16487;53.094;8.800;2023-02-19T05:16:16;104130.47;;;4.45;100.00
29549;BME280;16487;53.094;8.800;2023-02-19T05:18:44;104140.53;;;4.41;100.00
29549;BME280;16487;53.094;8.800;2023-02-19T05:21:13;104139.69;;;4.32;100.00
29549;BME280;16487;53.094;8.800;2023-02-19T05:23:40;104136.28;;;4.35;100.00
29549;BME280;16487;53.094;8.800;2023-02-19T05:26:10;104146.50;;;4.35;100.00
29549;BME280;16487;53.094;8.800;2023-02-19T05:28:39;104162.13;;;4.39;100.00
29549;BME280;16487;53.094;8.800;2023-02-19T05:31:08;104157.84;;;4.33;100.00
29549;BME280;16487;53.094;8.800;2023-02-19T05:33:36;104173.50;;;4.38;100.00
29549;BME280;16487;53.094;8.800;2023-02-19T05:36:06;104181.59;;;4.34;100.00
29549;BME280;16487;53.094;8.800;2023-02-19T05:38:34;104187.59;;;4.36;100.00
29549;BME280;16487;53.094;8.800;2023-02-19T05:41:08;104186.97;;;4.39;100.00
29549;BME280;16487;53.094;8.800;2023-02-19T05:43:37;104195.41;;;4.34;100.00
29549;BME280;16487;53.094;8.800;2023-02-19T05:46:06;104203.06;;;4.37;100.00
29549;BME280;16487;53.094;8.800;2023-02-19T05:48:33;104224.00;;;4.38;100.00
29549;BME280;16487;53.094;8.800;2023-02-19T05:51:01;104226.75;;;4.38;100.00
29549;BME280;16487;53.094;8.800;2023-02-19T05:53:30;104235.69;;;4.35;100.00
29549;BME280;16487;53.094;8.800;2023-02-19T05:55:57;104234.66;;;4.31;100.00
29549;BME280;16487;53.094;8.800;2023-02-19T05:58:25;104247.38;;;4.32;100.00
29549;BME280;16487;53.094;8.800;2023-02-19T06:00:53;104255.34;;;4.34;100.00
29549;BME280;16487;53.094;8.800;2023-02-19T06:03:22;104248.00;;;4.29;100.00
29549;BME280;16487;53.094;8.800;2023-02-19T06:05:50;104246.34;;;4.28;100.00
29549;BME280;16487;53.094;8.800;2023-02-19T06:08:17;104251.56;;;4.30;100.00
29549;BME280;16487;53.094;8.800;2023-02-19T06:10:44;104251.38;;;4.26;100.00
29549;BME280;16487;53.094;8.800;2023-02-19T06:13:11;104261.53;;;4.17;100.00
29549;BME280;16487;53.094;8.800;2023-02-19T06:15:39;104256.66;;;4.14;100.00
29549;BME280;16487;53.094;8.800;2023-02-19T06:18:06;104266.81;;;4.05;100.00
29549;BME280;16487;53.094;8.800;2023-02-19T06:20:34;104266.94;;;4.00;100.00
29549;BME280;16487;53.094;8.800;2023-02-19T06:23:02;104269.81;;;3.95;100.00
29549;BME280;16487;53.094;8.800;2023-02-19T06:25:29;104278.59;;;3.97;100.00
29549;BME280;16487;53.094;8.800;2023-02-19T06:27:56;104282.19;;;3.98;100.00
29549;BME280;16487;53.094;8.800;2023-02-19T06:30:24;104291.38;;;3.93;100.00
29549;BME280;16487;53.094;8.800;2023-02-19T06:32:52;104298.53;;;3.94;100.00
29549;BME280;16487;53.094;8.800;2023-02-19T06:35:19;104307.03;;;3.98;100.00
29549;BME280;16487;53.094;8.800;2023-02-19T06:37:48;104315.81;;;4.00;100.00
29549;BME280;16487;53.094;8.800;2023-02-19T06:40:16;104327.66;;;4.00;100.00
29549;BME280;16487;53.094;8.800;2023-02-19T06:42:43;104339.38;;;4.06;100.00
29549;BME280;16487;53.094;8.800;2023-02-19T06:45:10;104348.06;;;4.13;100.00
29549;BME280;16487;53.094;8.800;2023-02-19T06:47:37;104349.31;;;4.07;100.00
29549;BME280;16487;53.094;8.800;2023-02-19T06:50:05;104350.94;;;4.08;100.00
29549;BME280;16487;53.094;8.800;2023-02-19T06:52:32;104368.34;;;4.08;100.00
29549;BME280;16487;53.094;8.800;2023-02-19T06:55:01;104375.22;;;4.19;100.00
29549;BME280;16487;53.094;8.800;2023-02-19T06:57:28;104382.53;;;4.15;100.00
29549;BME280;16487;53.094;8.800;2023-02-19T06:59:56;104383.50;;;4.19;100.00
29549;BME280;16487;53.094;8.800;2023-02-19T07:02:23;104389.03;;;4.19;100.00
29549;BME280;16487;53.094;8.800;2023-02-19T07:04:50;104390.81;;;4.15;100.00
29549;BME280;16487;53.094;8.800;2023-02-19T07:07:18;104400.31;;;4.09;100.00
29549;BME280;16487;53.094;8.800;2023-02-19T07:09:45;104411.88;;;4.11;100.00
29549;BME280;16487;53.094;8.800;2023-02-19T07:12:13;104422.09;;;4.11;100.00
29549;BME280;16487;53.094;8.800;2023-02-19T07:14:41;104416.56;;;4.11;100.00
29549;BME280;16487;53.094;8.800;2023-02-19T07:17:08;104426.19;;;4.13;100.00
29549;BME280;16487;53.094;8.800;2023-02-19T07:19:36;104437.22;;;4.13;100.00
29549;BME280;16487;53.094;8.800;2023-02-19T07:22:03;104453.16;;;4.16;100.00
29549;BME280;16487;53.094;8.800;2023-02-19T07:24:30;104452.03;;;4.17;100.00
29549;BME280;16487;53.094;8.800;2023-02-19T07:26:58;104460.41;;;4.12;100.00
29549;BME280;16487;53.094;8.800;2023-02-19T07:29:26;104468.69;;;4.12;100.00
29549;BME280;16487;53.094;8.800;2023-02-19T07:31:54;104483.03;;;4.14;100.00
29549;BME280;16487;53.094;8.800;2023-02-19T07:34:21;104482.59;;;4.21;100.00
29549;BME280;16487;53.094;8.800;2023-02-19T07:36:48;104496.22;;;4.31;100.00
29549;BME280;16487;53.094;8.800;2023-02-19T07:39:16;104495.50;;;4.25;100.00
29549;BME280;16487;53.094;8.800;2023-02-19T07:41:43;104514.31;;;4.23;100.00
29549;BME280;16487;53.094;8.800;2023-02-19T07:44:26;104514.81;;;4.25;100.00
29549;BME280;16487;53.094;8.800;2023-02-19T07:46:53;104524.31;;;4.33;100.00
29549;BME280;16487;53.094;8.800;2023-02-19T07:49:20;104542.53;;;4.47;100.00
29549;BME280;16487;53.094;8.800;2023-02-19T07:51:48;104553.75;;;4.64;100.00
29549;BME280;16487;53.094;8.800;2023-02-19T07:54:15;104568.34;;;4.79;100.00
29549;BME280;16487;53.094;8.800;2023-02-19T07:56:42;104574.41;;;4.81;100.00
29549;BME280;16487;53.094;8.800;2023-02-19T07:59:10;104587.47;;;4.89;100.00
29549;BME280;16487;53.094;8.800;2023-02-19T08:01:38;104593.78;;;5.03;100.00
29549;BME280;16487;53.094;8.800;2023-02-19T08:04:06;104592.31;;;5.19;100.00
29549;BME280;16487;53.094;8.800;2023-02-19T08:06:33;104576.69;;;5.01;100.00
29549;BME280;16487;53.094;8.800;2023-02-19T08:09:00;104567.88;;;4.99;100.00
29549;BME280;16487;53.094;8.800;2023-02-19T08:11:28;104562.47;;;4.94;100.00
29549;BME280;16487;53.094;8.800;2023-02-19T08:13:55;104550.44;;;4.90;100.00
29549;BME280;16487;53.094;8.800;2023-02-19T08:16:22;104570.84;;;5.02;100.00
29549;BME280;16487;53.094;8.800;2023-02-19T08:19:10;104555.09;;;5.03;100.00
29549;BME280;16487;53.094;8.800;2023-02-19T08:21:37;104548.91;;;5.06;100.00
29549;BME280;16487;53.094;8.800;2023-02-19T08:24:05;104549.78;;;4.93;100.00
29549;BME280;16487;53.094;8.800;2023-02-19T08:26:32;104563.69;;;5.01;100.00
29549;BME280;16487;53.094;8.800;2023-02-19T08:29:00;104568.06;;;5.02;100.00
29549;BME280;16487;53.094;8.800;2023-02-19T08:31:27;104567.28;;;5.02;100.00
29549;BME280;16487;53.094;8.800;2023-02-19T08:33:55;104572.31;;;5.00;100.00
29549;BME280;16487;53.094;8.800;2023-02-19T08:36:23;104567.09;;;4.98;100.00
29549;BME280;16487;53.094;8.800;2023-02-19T08:38:51;104581.50;;;5.09;100.00
29549;BME280;16487;53.094;8.800;2023-02-19T08:41:18;104571.91;;;4.93;100.00
29549;BME280;16487;53.094;8.800;2023-02-19T08:43:45;104575.34;;;5.12;100.00
29549;BME280;16487;53.094;8.800;2023-02-19T08:46:13;104570.44;;;5.09;100.00
29549;BME280;16487;53.094;8.800;2023-02-19T08:48:40;104557.72;;;5.08;100.00
29549;BME280;16487;53.094;8.800;2023-02-19T08:51:09;104549.44;;;5.08;100.00
29549;BME280;16487;53.094;8.800;2023-02-19T08:53:39;104537.63;;;5.16;100.00
29549;BME280;16487;53.094;8.800;2023-02-19T08:56:08;104528.97;;;5.31;100.00
29549;BME280;16487;53.094;8.800;2023-02-19T08:58:36;104533.22;;;5.37;100.00
29549;BME280;16487;53.094;8.800;2023-02-19T09:01:07;104513.25;;;5.40;100.00
29549;BME280;16487;53.094;8.800;2023-02-19T09:03:34;104507.75;;;5.48;100.00
29549;BME280;16487;53.094;8.800;2023-02-19T09:06:02;104482.34;;;5.46;100.00
29549;BME280;16487;53.094;8.800;2023-02-19T09:08:29;104500.06;;;5.67;100.00
29549;BME280;16487;53.094;8.800;2023-02-19T09:10:59;104492.44;;;5.73;100.00
29549;BME280;16487;53.094;8.800;2023-02-19T09:13:26;104461.94;;;5.95;100.00
29549;BME280;16487;53.094;8.800;2023-02-19T09:15:54;104427.13;;;6.11;100.00
29549;BME280;16487;53.094;8.800;2023-02-19T09:18:21;104390.31;;;6.19;100.00
29549;BME280;16487;53.094;8.800;2023-02-19T09:20:49;104326.59;;;6.02;100.00
29549;BME280;16487;53.094;8.800;2023-02-19T09:23:16;104280.81;;;6.30;100.00
29549;BME280;16487;53.094;8.800;2023-02-19T09:25:43;104201.44;;;6.26;100.00
29549;BME280;16487;53.094;8.800;2023-02-19T09:28:12;104099.97;;;6.21;100.00
29549;BME280;16487;53.094;8.800;2023-02-19T09:30:39;103973.78;;;6.32;100.00
29549;BME280;16487;53.094;8.800;2023-02-19T09:33:07;103830.16;;;6.22;100.00
29549;BME280;16487;53.094;8.800;2023-02-19T09:35:37;103673.88;;;6.11;100.00
29549;BME280;16487;53.094;8.800;2023-02-19T09:38:05;103549.53;;;6.30;100.00
29549;BME280;16487;53.094;8.800;2023-02-19T09:40:34;103436.06;;;6.46;100.00
29549;BME280;16487;53.094;8.800;2023-02-19T09:43:05;103379.66;;;6.66;100.00
29549;BME280;16487;53.094;8.800;2023-02-19T09:45:34;103306.53;;;6.70;100.00
29549;BME280;16487;53.094;8.800;2023-02-19T09:48:03;103272.66;;;6.61;100.00
29549;BME280;16487;53.094;8.800;2023-02-19T09:50:34;103245.09;;;6.68;100.00
29549;BME280;16487;53.094;8.800;2023-02-19T09:53:05;103203.72;;;6.60;100.00
29549;BME280;16487;53.094;8.800;2023-02-19T09:55:38;103192.91;;;6.70;100.00
29549;BME280;16487;53.094;8.800;2023-02-19T09:58:18;103149.72;;;6.85;100.00
29549;BME280;16487;53.094;8.800;2023-02-19T10:00:50;103102.09;;;7.14;100.00
29549;BME280;16487;53.094;8.800;2023-02-19T10:03:21;103039.50;;;6.78;100.00
29549;BME280;16487;53.094;8.800;2023-02-19T10:05:49;102985.59;;;6.76;100.00
29549;BME280;16487;53.094;8.800;2023-02-19T10:08:19;102933.16;;;6.67;100.00
29549;BME280;16487;53.094;8.800;2023-02-19T10:10:47;102898.47;;;6.73;100.00
29549;BME280;16487;53.094;8.800;2023-02-19T10:13:18;102845.03;;;6.95;100.00
29549;BME280;16487;53.094;8.800;2023-02-19T10:15:50;102798.97;;;7.10;100.00
29549;BME280;16487;53.094;8.800;2023-02-19T10:18:19;102745.94;;;7.38;100.00
29549;BME280;16487;53.094;8.800;2023-02-19T10:20:48;102685.50;;;7.80;100.00
29549;BME280;16487;53.094;8.800;2023-02-19T10:23:17;102590.03;;;7.88;100.00
29549;BME280;16487;53.094;8.800;2023-02-19T10:25:46;102513.06;;;8.25;100.00
29549;BME280;16487;53.094;8.800;2023-02-19T10:28:18;102412.38;;;9.39;100.00
29549;BME280;16487;53.094;8.800;2023-02-19T10:30:51;102234.69;;;9.48;100.00
29549;BME280;16487;53.094;8.800;2023-02-19T10:33:19;102053.66;;;10.41;100.00
29549;BME280;16487;53.094;8.800;2023-02-19T10:35:54;101872.47;;;9.53;100.00
29549;BME280;16487;53.094;8.800;2023-02-19T10:38:24;101695.25;;;11.46;100.00
29549;BME280;16487;53.094;8.800;2023-02-19T10:40:59;101572.91;;;9.73;100.00
29549;BME280;16487;53.094;8.800;2023-02-19T10:43:29;101613.31;;;10.18;100.00
29549;BME280;16487;53.094;8.800;2023-02-19T10:46:00;101550.97;;;11.43;100.00
29549;BME280;16487;53.094;8.800;2023-02-19T10:48:29;101426.56;;;12.87;100.00
29549;BME280;16487;53.094;8.800;2023-02-19T10:51:00;101344.25;;;11.50;100.00
29549;BME280;16487;53.094;8.800;2023-02-19T10:53:39;101323.03;;;10.46;100.00
29549;BME280;16487;53.094;8.800;2023-02-19T10:56:09;101369.72;;;10.42;100.00
29549;BME280;16487;53.094;8.800;2023-02-19T10:58:38;101392.88;;;10.78;100.00
29549;BME280;16487;53.094;8.800;2023-02-19T11:01:18;101366.41;;;10.86;100.00
29549;BME280;16487;53.094;8.800;2023-02-19T11:03:47;101330.59;;;10.65;100.00
29549;BME280;16487;53.094;8.800;2023-02-19T11:06:16;101363.16;;;10.09;100.00
29549;BME280;16487;53.094;8.800;2023-02-19T11:08:50;101366.03;;;9.53;100.00
29549;BME280;16487;53.094;8.800;2023-02-19T11:11:24;101386.78;;;9.98;100.00
29549;BME280;16487;53.094;8.800;2023-02-19T11:13:53;101405.63;;;10.36;100.00
29549;BME280;16487;53.094;8.800;2023-02-19T11:16:23;101357.16;;;10.11;100.00
29549;BME280;16487;53.094;8.800;2023-02-19T11:19:03;101366.81;;;10.26;100.00
29549;BME280;16487;53.094;8.800;2023-02-19T11:21:30;101350.66;;;11.15;100.00
29549;BME280;16487;53.094;8.800;2023-02-19T11:23:58;101288.25;;;11.41;100.00
29549;BME280;16487;53.094;8.800;2023-02-19T11:26:29;101267.66;;;11.19;100.00
29549;BME280;16487;53.094;8.800;2023-02-19T11:28:59;101221.47;;;11.18;100.00
29549;BME280;16487;53.094;8.800;2023-02-19T11:31:30;101192.16;;;11.42;100.00
29549;BME280;16487;53.094;8.800;2023-02-19T11:33:59;101195.59;;;10.66;100.00
29549;BME280;16487;53.094;8.800;2023-02-19T11:36:30;101180.78;;;10.69;100.00
29549;BME280;16487;53.094;8.800;2023-02-19T11:39:02;101173.50;;;11.23;100.00
29549;BME280;16487;53.094;8.800;2023-02-19T11:44:49;101107.31;;;12.35;100.00
29549;BME280;16487;53.094;8.800;2023-02-19T11:50:20;101494.41;;;12.91;100.00
29549;BME280;16487;53.094;8.800;2023-02-19T11:52:59;101714.09;;;13.76;100.00
29549;BME280;16487;53.094;8.800;2023-02-19T11:55:40;101898.94;;;12.07;100.00
29549;BME280;16487;53.094;8.800;2023-02-19T11:58:34;101912.16;;;11.80;100.00
29549;BME280;16487;53.094;8.800;2023-02-19T12:01:10;101909.19;;;10.36;100.00
29549;BME280;16487;53.094;8.800;2023-02-19T12:04:12;101822.16;;;10.25;100.00
29549;BME280;16487;53.094;8.800;2023-02-19T12:06:52;101826.16;;;11.68;100.00
29549;BME280;16487;53.094;8.800;2023-02-19T12:09:33;101905.81;;;12.45;100.00
29549;BME280;16487;53.094;8.800;2023-02-19T12:12:29;101958.34;;;12.11;100.00
29549;BME280;16487;53.094;8.800;2023-02-19T12:18:26;102046.75;;;12.74;100.00
29549;BME280;16487;53.094;8.800;2023-02-19T12:21:12;102046.63;;;13.01;100.00
29549;BME280;16487;53.094;8.800;2023-02-19T12:24:09;102068.59;;;12.06;100.00
29549;BME280;16487;53.094;8.800;2023-02-19T12:26:46;102036.03;;;11.96;100.00
29549;BME280;16487;53.094;8.800;2023-02-19T12:29:27;102096.16;;;13.07;100.00
29549;BME280;16487;53.094;8.800;2023-02-19T12:32:20;102149.88;;;11.89;100.00
29549;BME280;16487;53.094;8.800;2023-02-19T12:37:50;102073.88;;;11.71;100.00
29549;BME280;16487;53.094;8.800;2023-02-19T12:40:27;102055.72;;;12.39;100.00
29549;BME280;16487;53.094;8.800;2023-02-19T12:43:08;102125.09;;;12.74;100.00
29549;BME280;16487;53.094;8.800;2023-02-19T12:45:40;102131.56;;;13.37;100.00
29549;BME280;16487;53.094;8.800;2023-02-19T12:48:15;102140.28;;;14.01;100.00
29549;BME280;16487;53.094;8.800;2023-02-19T12:50:47;102178.31;;;12.94;100.00
29549;BME280;16487;53.094;8.800;2023-02-19T12:53:29;102173.31;;;13.08;100.00
29549;BME280;16487;53.094;8.800;2023-02-19T12:55:59;102187.31;;;13.94;100.00
29549;BME280;16487;53.094;8.800;2023-02-19T12:58:36;102221.28;;;15.06;100.00
29549;BME280;16487;53.094;8.800;2023-02-19T13:01:06;102253.53;;;12.92;100.00
29549;BME280;16487;53.094;8.800;2023-02-19T13:03:40;102235.00;;;11.33;100.00
29549;BME280;16487;53.094;8.800;2023-02-19T13:06:20;102249.22;;;12.84;100.00
29549;BME280;16487;53.094;8.800;2023-02-19T13:08:53;102278.84;;;14.43;100.00
29549;BME280;16487;53.094;8.800;2023-02-19T13:11:36;102309.34;;;13.55;100.00
29549;BME280;16487;53.094;8.800;2023-02-19T13:14:13;102302.69;;;13.69;100.00
29549;BME280;16487;53.094;8.800;2023-02-19T13:16:45;102314.53;;;12.74;100.00
29549;BME280;16487;53.094;8.800;2023-02-19T13:19:14;102315.13;;;12.88;100.00
29549;BME280;16487;53.094;8.800;2023-02-19T13:21:43;102304.06;;;12.14;100.00